Time;durP1;ratioP1;P1;durP2;ratioP2;P2;SDS_P1;SDS_P2;PMS_P1;PMS_P2;Temp;Humidity;BMP_temperature;BMP_pressure;BME280_temperature;BME280_humidity;BME280_pressure;Samples;Min_cycle;Max_cycle;Signal;HPM_P1;HPM_P2
2023/06/02 00:07:48;;;;;;;13.17;4.37;;;13.60;1.00;;;;;;4862488;29;20462;-83
2023/06/02 00:14:16;;;;;;;;;;;;;;;;;;;;;
2023/06/02 00:17:00;;;;;;;16.67;5.73;;;13.40;1.00;;;;;;4967941;28;20500;-82
2023/06/02 00:22:29;;;;;;;14.17;4.50;;;;;;;;;;5014243;28;20452;-83
2023/06/02 00:25:14;;;;;;;10.70;4.47;;;13.20;1.00;;;;;;5015576;28;20437;-83
2023/06/02 00:31:18;;;;;;;;;;;;;;;;;;;;;
2023/06/02 00:33:54;;;;;;;7.37;4.17;;;;;;;;;;5012235;28;20459;-82
2023/06/02 00:36:34;;;;;;;10.50;4.47;;;13.20;1.00;;;;;;5015076;28;20480;-81
2023/06/02 00:45:44;;;;;;;;;;;;;;;;;;;;;
2023/06/02 00:54:16;;;;;;;9.70;4.57;;;12.90;1.00;;;;;;4999049;28;20802;-83
2023/06/02 01:00:41;;;;;;;6.67;4.13;;;12.90;1.00;;;;;;5000561;28;20868;-83
2023/06/02 01:03:25;;;;;;;14.13;4.90;;;13.00;1.00;;;;;;4994700;28;20427;-82
2023/06/02 01:12:32;;;;;;;15.90;4.90;;;12.80;1.00;;;;;;4950503;28;20452;-82
2023/06/02 01:19:02;;;;;;;15.07;5.27;;;12.90;1.00;;;;;;4998784;28;20464;-82
2023/06/02 01:25:14;;;;;;;11.50;5.37;;;12.80;1.00;;;;;;4865788;29;20549;-81
2023/06/02 01:28:09;;;;;;;8.53;4.80;;;12.80;1.00;;;;;;4876689;29;20462;-81
2023/06/02 01:31:46;;;;;;;14.13;5.80;;;12.80;1.00;;;;;;4948461;28;20449;-81
2023/06/02 01:34:43;;;;;;;10.30;4.53;;;12.50;1.00;;;;;;4990006;28;20460;-82
2023/06/02 01:37:45;;;;;;;9.00;5.40;;;12.50;1.00;;;;;;4999419;28;20481;-82
2023/06/02 01:46:55;;;;;;;12.70;4.53;;;12.60;1.00;;;;;;5005312;28;20472;-81
2023/06/02 01:49:26;;;;;;;21.50;4.27;;;;;;;;;;5001306;28;20473;-81
2023/06/02 01:58:27;;;;;;;10.07;4.23;;;12.10;1.00;;;;;;4990515;28;20443;-81
2023/06/02 02:01:10;;;;;;;12.50;4.70;;;12.10;1.00;;;;;;5018984;28;20444;-81
2023/06/02 02:04:00;;;;;;;13.60;5.40;;;12.20;1.00;;;;;;5017612;28;20433;-81
2023/06/02 02:10:19;;;;;;;;;;;;;;;;;;;;;
2023/06/02 02:22:11;;;;;;;13.77;6.43;;;12.30;1.00;;;;;;5001243;28;20441;-81
2023/06/02 02:24:41;;;;;;;7.07;4.90;;;;;;;;;;5002813;28;20426;-81
2023/06/02 02:27:13;;;;;;;15.50;5.00;;;;;;;;;;5001946;28;20955;-81
2023/06/02 02:30:07;;;;;;;;;;;;;;;;;;;;;
2023/06/02 02:38:44;;;;;;;13.93;4.77;;;10.80;1.00;;;;;;4991444;28;20492;-81
2023/06/02 02:44:13;;;;;;;11.00;4.90;;;11.90;1.00;;;;;;5001945;28;20445;-81
2023/06/02 02:52:55;;;;;;;11.30;5.53;;;;;;;;;;4995172;28;20453;-81
2023/06/02 02:55:37;;;;;;;13.20;4.97;;;11.80;1.00;;;;;;5007680;28;20456;-82
2023/06/02 03:01:35;;;;;;;12.33;4.87;;;11.60;1.00;;;;;;4994238;28;20449;-83
2023/06/02 03:07:15;;;;;;;9.43;5.17;;;11.50;1.00;;;;;;5015941;28;20452;-83
2023/06/02 03:09:50;;;;;;;6.60;4.10;;;11.00;1.00;;;;;;5012418;28;20475;-82
2023/06/02 03:13:00;;;;;;;10.93;5.40;;;11.70;1.00;;;;;;5005773;28;20503;-81
2023/06/02 03:21:51;;;;;;;9.67;4.43;;;11.60;1.00;;;;;;5001567;28;20449;-82
2023/06/02 03:30:39;;;;;;;8.83;5.50;;;11.60;1.00;;;;;;4996068;23;20496;-84
2023/06/02 03:33:06;;;;;;;13.63;4.20;;;11.50;1.00;;;;;;5005876;28;20445;-83
2023/06/02 03:35:33;;;;;;;10.30;4.93;;;11.70;1.00;;;;;;5004247;28;20429;-84
2023/06/02 03:38:00;;;;;;;21.23;5.27;;;11.70;1.00;;;;;;5004434;28;20488;-83
2023/06/02 03:40:28;;;;;;;18.30;5.13;;;12.70;46.40;;;;;;5005302;28;20494;-85
2023/06/02 03:42:55;;;;;;;13.07;4.97;;;11.80;1.00;;;;;;5003932;28;20477;-85
2023/06/02 03:45:22;;;;;;;8.87;6.60;;;11.70;1.00;;;;;;5003690;28;20965;-84
2023/06/02 03:47:48;;;;;;;14.53;4.60;;;11.60;1.00;;;;;;5003033;28;20528;-84
2023/06/02 03:50:15;;;;;;;11.93;4.63;;;11.70;99.90;;;;;;5003817;28;20534;-84
2023/06/02 03:52:42;;;;;;;15.80;5.33;;;11.80;1.00;;;;;;5003717;28;20914;-84
2023/06/02 03:55:09;;;;;;;11.80;5.37;;;11.70;1.00;;;;;;5003460;28;20445;-83
2023/06/02 03:57:38;;;;;;;17.97;5.30;;;11.50;1.00;;;;;;5004322;28;20567;-84
2023/06/02 04:00:10;;;;;;;13.93;5.50;;;11.60;1.00;;;;;;5004971;28;20512;-84
2023/06/02 04:02:37;;;;;;;16.53;5.57;;;11.50;1.00;;;;;;5004586;28;20487;-84
2023/06/02 04:05:04;;;;;;;11.00;4.83;;;11.40;1.00;;;;;;5005853;28;20528;-84
2023/06/02 04:07:31;;;;;;;18.07;4.70;;;11.60;1.00;;;;;;5007886;28;20535;-85
2023/06/02 04:09:58;;;;;;;17.03;5.27;;;11.70;1.00;;;;;;5008241;28;20457;-85
2023/06/02 04:12:25;;;;;;;14.63;5.20;;;11.90;1.00;;;;;;5002738;28;20563;-84
2023/06/02 04:14:54;;;;;;;13.37;4.67;;;11.90;1.00;;;;;;5003369;28;20453;-86
2023/06/02 04:17:20;;;;;;;9.10;4.50;;;11.70;1.00;;;;;;5004549;28;20459;-84
2023/06/02 04:19:47;;;;;;;16.40;5.50;;;11.40;1.00;;;;;;5004051;28;20477;-85
2023/06/02 04:22:14;;;;;;;14.87;4.23;;;11.50;1.00;;;;;;5003758;28;21011;-85
2023/06/02 04:24:41;;;;;;;11.87;4.80;;;11.50;99.90;;;;;;5002981;28;20454;-84
2023/06/02 04:27:08;;;;;;;16.10;5.43;;;11.50;1.00;;;;;;5002470;28;20633;-84
2023/06/02 04:29:35;;;;;;;13.57;5.10;;;11.80;1.00;;;;;;5002769;28;20795;-84
2023/06/02 04:32:03;;;;;;;10.83;4.73;;;12.00;1.00;;;;;;5003582;28;21058;-85
2023/06/02 04:34:31;;;;;;;14.53;4.67;;;11.60;77.00;;;;;;5020786;28;20462;-83
2023/06/02 04:36:58;;;;;;;13.00;4.23;;;11.70;1.00;;;;;;5021028;28;20497;-83
2023/06/02 04:39:25;;;;;;;19.60;5.37;;;12.20;99.90;;;;;;5020726;28;20445;-83
2023/06/02 04:41:52;;;;;;;41.20;5.70;;;11.90;1.00;;;;;;5020800;28;20450;-83
2023/06/02 04:44:18;;;;;;;15.63;4.70;;;11.90;1.00;;;;;;5020621;28;20433;-83
2023/06/02 04:46:45;;;;;;;12.10;4.97;;;12.00;1.00;;;;;;5015343;28;20460;-84
2023/06/02 04:49:13;;;;;;;13.30;5.70;;;11.70;1.00;;;;;;5005279;28;20491;-84
2023/06/02 04:51:40;;;;;;;7.10;4.57;;;11.70;1.00;;;;;;5005923;28;20501;-85
2023/06/02 04:54:07;;;;;;;14.90;5.03;;;11.60;1.00;;;;;;5007285;28;20534;-84
2023/06/02 04:56:36;;;;;;;12.23;5.40;;;11.70;1.00;;;;;;5007745;28;20476;-85
2023/06/02 04:59:03;;;;;;;12.60;5.27;;;11.70;1.00;;;;;;5003120;28;20460;-85
2023/06/02 05:01:30;;;;;;;18.23;5.63;;;12.00;1.00;;;;;;5005276;28;20473;-85
2023/06/02 05:03:57;;;;;;;14.00;5.70;;;11.80;1.00;;;;;;5006596;28;20543;-85
2023/06/02 05:06:25;;;;;;;14.97;5.03;;;11.80;1.00;;;;;;5004405;28;20508;-84
2023/06/02 05:08:52;;;;;;;10.00;5.47;;;11.70;1.00;;;;;;5018768;28;20404;-85
2023/06/02 05:11:19;;;;;;;17.23;5.50;;;11.70;1.00;;;;;;5019289;28;20480;-84
2023/06/02 05:13:46;;;;;;;13.13;6.13;;;11.80;1.00;;;;;;5020216;28;20433;-85
2023/06/02 05:16:13;;;;;;;11.00;4.87;;;11.90;99.90;;;;;;5019844;28;20467;-84
2023/06/02 05:18:40;;;;;;;24.27;5.53;;;11.80;1.00;;;;;;5009386;28;20532;-84
2023/06/02 05:21:07;;;;;;;16.57;6.40;;;11.70;1.00;;;;;;5009392;28;20463;-84
2023/06/02 05:23:36;;;;;;;22.63;4.80;;;11.80;52.00;;;;;;5006561;28;20788;-84
2023/06/02 05:26:03;;;;;;;17.17;7.27;;;12.00;34.50;;;;;;5005582;28;20459;-84
2023/06/02 05:28:30;;;;;;;19.23;6.70;;;11.90;1.00;;;;;;5004441;28;20507;-85
2023/06/02 05:31:09;;;;;;;11.07;4.40;;;12.00;99.90;;;;;;5002747;28;20488;-85
2023/06/02 05:33:35;;;;;;;15.17;5.40;;;12.10;1.00;;;;;;5006045;28;20772;-85
2023/06/02 05:36:05;;;;;;;20.43;5.50;;;12.30;1.00;;;;;;5003797;28;20548;-85
2023/06/02 05:38:31;;;;;;;10.93;5.40;;;12.00;1.00;;;;;;5001557;28;20509;-85
2023/06/02 05:41:00;;;;;;;12.20;5.67;;;12.00;1.00;;;;;;5004668;28;20511;-84
2023/06/02 05:43:27;;;;;;;10.50;4.97;;;12.10;1.00;;;;;;5005327;28;20448;-84
2023/06/02 05:45:53;;;;;;;13.60;5.50;;;12.30;1.00;;;;;;5000225;28;20455;-84
2023/06/02 05:48:20;;;;;;;12.97;6.07;;;12.10;1.00;;;;;;5000711;28;20544;-83
2023/06/02 05:50:47;;;;;;;21.27;5.23;;;12.30;1.00;;;;;;5000483;28;20474;-84
2023/06/02 05:53:14;;;;;;;14.30;5.67;;;12.40;1.00;;;;;;5001656;28;20448;-83
2023/06/02 05:55:42;;;;;;;13.43;6.10;;;12.40;1.00;;;;;;5004814;28;20492;-85
2023/06/02 05:58:10;;;;;;;13.73;6.00;;;12.20;1.00;;;;;;5004846;28;20481;-83
2023/06/02 06:00:37;;;;;;;17.03;4.93;;;12.30;1.00;;;;;;4998975;28;20519;-83
2023/06/02 06:03:06;;;;;;;23.83;6.70;;;12.20;1.00;;;;;;5001445;28;20430;-85
2023/06/02 06:05:33;;;;;;;13.33;5.60;;;12.20;1.00;;;;;;5001360;28;20502;-83
2023/06/02 06:08:00;;;;;;;11.03;4.73;;;12.20;1.00;;;;;;5001536;28;20502;-83
2023/06/02 06:10:27;;;;;;;14.17;5.10;;;12.60;99.90;;;;;;5000707;28;20937;-84
2023/06/02 06:12:54;;;;;;;10.90;5.83;;;12.30;1.00;;;;;;5001036;28;20454;-83
2023/06/02 06:15:22;;;;;;;13.40;5.50;;;12.30;1.00;;;;;;5000352;28;20452;-84
2023/06/02 06:17:50;;;;;;;16.13;5.67;;;12.30;1.00;;;;;;5000306;28;20484;-85
2023/06/02 06:20:17;;;;;;;25.80;5.73;;;12.10;93.80;;;;;;5002012;28;20952;-83
2023/06/02 06:22:44;;;;;;;14.23;5.90;;;12.30;1.00;;;;;;5011624;28;20503;-82
2023/06/02 06:25:11;;;;;;;15.77;5.60;;;12.30;1.00;;;;;;5016776;28;20418;-82
2023/06/02 06:27:38;;;;;;;8.97;6.03;;;12.40;1.00;;;;;;5015745;28;20504;-83
2023/06/02 06:30:06;;;;;;;10.87;6.00;;;12.50;1.00;;;;;;5010324;28;20419;-83
2023/06/02 06:32:35;;;;;;;15.20;5.97;;;12.50;1.00;;;;;;5011257;28;20503;-85
2023/06/02 06:35:01;;;;;;;10.90;5.73;;;12.40;1.00;;;;;;5007232;28;20449;-84
2023/06/02 06:37:28;;;;;;;11.10;6.10;;;12.40;1.00;;;;;;5009382;28;20544;-84
2023/06/02 06:39:55;;;;;;;10.97;6.50;;;12.40;1.00;;;;;;5000248;28;20487;-84
2023/06/02 06:42:23;;;;;;;18.73;6.10;;;12.50;1.00;;;;;;4996030;28;20555;-84
2023/06/02 06:44:50;;;;;;;15.53;6.30;;;12.40;1.00;;;;;;4996653;28;20531;-85
2023/06/02 06:47:19;;;;;;;15.80;6.13;;;12.50;1.00;;;;;;5000285;28;20449;-84
2023/06/02 06:49:49;;;;;;;13.80;5.93;;;12.60;99.90;;;;;;5008113;28;20483;-83
2023/06/02 06:52:16;;;;;;;9.07;5.10;;;12.20;1.00;;;;;;5015613;28;20855;-83
2023/06/02 06:54:43;;;;;;;14.70;6.17;;;12.50;99.90;;;;;;5016235;28;20473;-84
2023/06/02 06:57:11;;;;;;;16.87;7.43;;;12.90;1.00;;;;;;5015556;28;20488;-83
2023/06/02 06:59:41;;;;;;;20.70;6.67;;;12.90;1.00;;;;;;5010068;28;20520;-84
2023/06/02 07:02:08;;;;;;;17.57;6.40;;;12.90;1.00;;;;;;5004957;28;20507;-84
2023/06/02 07:04:35;;;;;;;22.70;6.73;;;12.80;43.30;;;;;;5000917;28;20452;-85
2023/06/02 07:07:03;;;;;;;16.90;7.00;;;13.00;1.00;;;;;;5001642;28;20511;-84
2023/06/02 07:09:30;;;;;;;14.60;7.17;;;13.00;1.00;;;;;;5003409;28;20452;-86
2023/06/02 07:11:57;;;;;;;21.10;8.20;;;13.00;1.00;;;;;;5003768;28;20475;-84
2023/06/02 07:14:25;;;;;;;19.10;7.37;;;13.00;1.00;;;;;;5006989;28;20521;-84
2023/06/02 07:16:54;;;;;;;15.50;6.93;;;13.10;1.00;;;;;;5002529;28;20480;-85
2023/06/02 07:19:21;;;;;;;22.80;8.83;;;13.10;1.00;;;;;;5001684;28;20456;-84
2023/06/02 07:21:48;;;;;;;16.83;8.67;;;13.40;1.00;;;;;;5002524;28;20877;-84
2023/06/02 07:24:16;;;;;;;21.20;10.60;;;13.60;1.00;;;;;;5005295;28;20455;-84
2023/06/02 07:26:43;;;;;;;18.07;9.13;;;13.90;1.00;;;;;;5006979;28;20448;-84
2023/06/02 07:29:11;;;;;;;18.00;7.97;;;13.90;1.00;;;;;;5003779;28;20514;-84
2023/06/02 07:31:38;;;;;;;18.07;10.40;;;14.00;1.00;;;;;;5003058;28;20567;-84
2023/06/02 07:34:05;;;;;;;18.43;9.03;;;14.00;1.00;;;;;;5003211;28;20536;-84
2023/06/02 07:36:32;;;;;;;22.40;10.87;;;13.80;1.00;;;;;;5002944;28;20962;-84
2023/06/02 07:38:58;;;;;;;17.63;9.30;;;13.70;1.00;;;;;;5004032;28;20465;-84
2023/06/02 07:41:27;;;;;;;29.63;11.33;;;13.90;1.00;;;;;;5004227;28;20881;-84
2023/06/02 07:43:54;;;;;;;14.50;9.10;;;13.70;1.00;;;;;;5004831;28;20452;-84
2023/06/02 07:46:22;;;;;;;13.50;9.10;;;13.60;1.00;;;;;;5004680;28;20463;-84
2023/06/02 07:48:48;;;;;;;20.57;10.07;;;13.80;1.00;;;;;;5003902;28;20539;-85
2023/06/02 07:51:15;;;;;;;16.77;9.50;;;13.70;5.70;;;;;;5017389;28;20456;-84
2023/06/02 07:53:42;;;;;;;14.90;9.50;;;13.90;1.00;;;;;;5004106;28;20445;-83
2023/06/02 07:56:09;;;;;;;16.87;9.37;;;13.90;1.00;;;;;;5004770;28;20431;-84
2023/06/02 07:58:37;;;;;;;19.83;9.10;;;13.90;1.00;;;;;;5010276;28;20482;-83
2023/06/02 08:01:04;;;;;;;14.60;9.90;;;13.90;1.00;;;;;;5011537;28;20496;-83
2023/06/02 08:03:31;;;;;;;21.67;10.20;;;14.00;1.00;;;;;;5011009;28;20477;-85
2023/06/02 08:05:58;;;;;;;19.77;10.47;;;14.00;1.00;;;;;;5012205;28;20452;-83
2023/06/02 08:08:25;;;;;;;20.90;9.33;;;13.90;1.00;;;;;;5015759;28;20537;-83
2023/06/02 08:10:52;;;;;;;17.30;10.90;;;14.00;1.00;;;;;;5020472;28;20428;-84
2023/06/02 08:13:18;;;;;;;18.00;10.57;;;13.80;1.00;;;;;;5018432;28;20477;-84
2023/06/02 08:15:47;;;;;;;15.63;8.77;;;14.00;1.00;;;;;;5011469;28;20488;-85
2023/06/02 08:18:15;;;;;;;14.10;7.40;;;14.10;1.00;;;;;;5005592;28;20851;-85
2023/06/02 08:20:42;;;;;;;14.23;8.07;;;14.10;1.00;;;;;;5003724;28;20580;-84
2023/06/02 08:23:09;;;;;;;17.40;7.77;;;14.10;1.00;;;;;;5003562;28;20540;-84
2023/06/02 08:25:38;;;;;;;12.13;8.23;;;14.10;1.00;;;;;;5003948;28;20456;-84
2023/06/02 08:28:05;;;;;;;13.20;7.83;;;14.20;1.00;;;;;;5003127;28;20477;-84
2023/06/02 08:30:33;;;;;;;14.47;7.93;;;14.20;55.90;;;;;;5007295;28;20453;-84
2023/06/02 08:33:03;;;;;;;13.03;6.60;;;14.10;1.00;;;;;;5019751;28;20467;-84
2023/06/02 08:35:30;;;;;;;14.07;7.27;;;14.20;1.00;;;;;;5019776;28;20457;-84
2023/06/02 08:37:57;;;;;;;14.27;6.40;;;14.20;1.00;;;;;;5007390;28;20481;-84
2023/06/02 08:40:26;;;;;;;15.97;6.33;;;14.10;1.00;;;;;;5020625;28;20429;-84
2023/06/02 08:42:53;;;;;;;9.97;5.50;;;14.20;1.00;;;;;;5020518;28;20440;-84
2023/06/02 08:45:22;;;;;;;8.93;4.80;;;14.30;1.00;;;;;;5020699;28;20459;-86
2023/06/02 08:47:54;;;;;;;6.23;5.63;;;14.40;1.00;;;;;;5020633;28;20429;-84
2023/06/02 08:50:27;;;;;;;5.90;5.30;;;15.20;1.00;;;;;;5020099;28;20431;-85
2023/06/02 08:52:56;;;;;;;12.10;5.40;;;14.90;1.00;;;;;;5014134;28;20539;-84
2023/06/02 08:55:24;;;;;;;9.13;4.93;;;14.90;1.00;;;;;;5008094;28;20429;-84
2023/06/02 08:57:52;;;;;;;7.87;5.10;;;15.60;1.00;;;;;;5005885;28;20847;-83
2023/06/02 09:00:19;;;;;;;12.80;5.30;;;15.60;1.00;;;;;;5003679;28;20469;-86
2023/06/02 09:02:47;;;;;;;7.13;4.97;;;15.40;99.90;;;;;;5007610;28;20433;-84
2023/06/02 09:05:16;;;;;;;12.40;5.33;;;15.20;99.90;;;;;;5008652;28;20461;-84
2023/06/02 09:07:45;;;;;;;7.47;6.57;;;15.20;99.90;;;;;;5004718;28;20516;-84
2023/06/02 09:10:29;;;;;;;14.30;6.37;;;15.40;99.90;;;;;;5003817;28;20448;-85
2023/06/02 09:12:56;;;;;;;8.03;5.60;;;15.30;99.90;;;;;;5008191;28;20456;-84
2023/06/02 09:15:25;;;;;;;9.43;7.80;;;15.40;1.00;;;;;;5010597;28;20449;-84
2023/06/02 09:17:52;;;;;;;10.63;6.13;;;15.40;99.90;;;;;;5009111;28;20556;-85
2023/06/02 09:20:31;;;;;;;9.03;6.10;;;15.20;1.00;;;;;;5005808;28;20457;-85
2023/06/02 09:23:01;;;;;;;8.57;5.77;;;15.20;99.90;;;;;;5005294;28;20869;-85
2023/06/02 09:25:29;;;;;;;7.37;5.03;;;15.30;99.90;;;;;;5003797;28;20493;-84
2023/06/02 09:27:58;;;;;;;8.57;4.93;;;15.40;1.00;;;;;;5002400;28;20509;-84
2023/06/02 09:30:25;;;;;;;6.20;4.50;;;15.80;1.00;;;;;;5002788;28;20893;-84
2023/06/02 09:33:19;;;;;;;8.13;4.43;;;15.30;1.00;;;;;;5031031;23;20565;-82
2023/06/02 09:39:03;;;;;;;6.73;4.43;;;16.40;99.90;;;;;;4995948;28;20528;-82
2023/06/02 09:41:55;;;;;;;;;;;;;;;;;;;;;
2023/06/02 09:44:36;;;;;;;7.60;3.20;;;16.60;99.90;;;;;;5002017;28;20521;-82
2023/06/02 09:47:13;;;;;;;4.30;2.27;;;;;;;;;;5005630;28;20482;-83
2023/06/02 09:49:43;;;;;;;4.20;1.60;;;16.50;99.90;;;;;;5004598;28;20532;-81
2023/06/02 09:58:12;;;;;;;5.80;3.00;;;17.20;99.90;;;;;;5007947;28;20473;-82
2023/06/02 10:00:52;;;;;;;5.73;2.10;;;16.60;99.90;;;;;;5008140;28;20472;-83
2023/06/02 10:06:19;;;;;;;3.63;2.57;;;17.30;99.90;;;;;;5015357;28;20449;-82
2023/06/02 10:09:06;;;;;;;5.93;1.97;;;17.40;99.90;;;;;;5017379;28;20453;-83
2023/06/02 10:18:08;;;;;;;2.93;1.43;;;17.00;99.90;;;;;;5014184;28;20450;-81
2023/06/02 10:23:47;;;;;;;15.77;9.37;;;17.30;99.90;;;;;;5035613;23;20481;-82
2023/06/02 10:26:57;;;;;;;8.23;2.97;;;17.70;99.90;;;;;;5003815;28;20452;-82
2023/06/02 10:29:48;;;;;;;2.87;1.60;;;17.70;99.90;;;;;;4985789;28;20461;-82
2023/06/02 10:35:11;;;;;;;2.83;1.73;;;18.00;99.90;;;;;;5028034;23;20588;-85
2023/06/02 10:37:39;;;;;;;3.50;2.20;;;17.40;99.90;;;;;;5000586;28;20460;-84
2023/06/02 10:40:10;;;;;;;6.87;3.17;;;17.30;99.90;;;;;;5000892;28;20515;-85
2023/06/02 10:42:37;;;;;;;3.30;2.30;;;17.60;99.90;;;;;;5002227;28;20528;-85
2023/06/02 10:45:42;;;;;;;2.23;1.97;;;17.60;99.90;;;;;;5000257;28;20553;-85
2023/06/02 10:48:39;;;;;;;3.87;2.40;;;17.50;99.90;;;;;;5000344;28;20489;-85
2023/06/02 10:51:08;;;;;;;2.70;1.80;;;17.70;99.90;;;;;;5016878;28;20451;-84
2023/06/02 10:54:13;;;;;;;8.33;1.90;;;17.80;99.90;;;;;;5013640;28;20484;-83
2023/06/02 10:56:41;;;;;;;4.40;2.10;;;17.90;99.90;;;;;;5002943;28;20970;-84
2023/06/02 10:59:09;;;;;;;1.53;1.40;;;17.80;99.90;;;;;;5014391;28;20468;-83
2023/06/02 11:01:49;;;;;;;4.07;2.63;;;17.70;99.90;;;;;;5022143;28;20449;-84
2023/06/02 11:04:31;;;;;;;3.20;2.87;;;17.60;1.00;;;;;;5007828;28;20440;-83
2023/06/02 11:07:22;;;;;;;1.90;1.70;;;17.60;99.90;;;;;;5005771;28;20441;-85
2023/06/02 11:09:52;;;;;;;1.90;1.80;;;17.80;99.90;;;;;;5015974;28;20424;-84
2023/06/02 11:12:19;;;;;;;2.63;1.30;;;17.70;99.90;;;;;;5019753;28;20460;-85
2023/06/02 11:15:18;;;;;;;2.67;2.10;;;17.70;99.90;;;;;;5022297;28;20472;-82
2023/06/02 11:17:47;;;;;;;6.23;3.00;;;17.70;99.90;;;;;;5014977;28;20512;-86
2023/06/02 11:20:17;;;;;;;2.37;1.50;;;17.70;99.90;;;;;;5012067;28;20863;-85
2023/06/02 11:22:44;;;;;;;3.37;1.77;;;17.70;99.90;;;;;;5006532;28;20452;-85
2023/06/02 11:25:11;;;;;;;2.40;1.53;;;18.00;99.90;;;;;;5007889;28;20500;-85
2023/06/02 11:27:43;;;;;;;3.70;1.87;;;18.00;99.90;;;;;;5006038;28;20449;-86
2023/06/02 11:30:15;;;;;;;1.33;1.20;;;18.10;99.90;;;;;;5003982;28;20924;-86
2023/06/02 11:32:43;;;;;;;2.50;1.73;;;18.20;99.90;;;;;;5003321;28;20437;-86
2023/06/02 11:35:11;;;;;;;2.00;1.70;;;18.30;99.90;;;;;;5003131;28;20544;-86
2023/06/02 11:37:42;;;;;;;5.30;1.87;;;18.20;99.90;;;;;;5005561;28;20963;-85
2023/06/02 11:40:11;;;;;;;4.37;1.50;;;18.10;99.90;;;;;;5004571;28;20496;-85
2023/06/02 11:42:39;;;;;;;2.70;1.70;;;18.10;99.90;;;;;;5004846;28;20812;-85
2023/06/02 11:45:08;;;;;;;3.47;2.00;;;17.80;99.90;;;;;;5003905;28;20482;-86
2023/06/02 11:47:35;;;;;;;6.83;1.90;;;17.90;99.90;;;;;;5003330;28;20452;-85
2023/06/02 11:50:02;;;;;;;2.90;1.73;;;18.10;99.90;;;;;;5003503;28;20517;-85
2023/06/02 11:52:33;;;;;;;1.47;1.23;;;18.10;99.90;;;;;;5004055;28;20963;-85
2023/06/02 11:55:03;;;;;;;1.90;1.80;;;18.10;99.90;;;;;;5015503;28;20456;-82
2023/06/02 11:57:32;;;;;;;7.83;2.23;;;18.20;99.90;;;;;;5020428;28;20449;-84
2023/06/02 12:00:12;;;;;;;4.40;1.43;;;18.20;99.90;;;;;;5021063;28;20499;-82
2023/06/02 12:02:43;;;;;;;4.10;1.60;;;18.40;1.00;;;;;;5021177;28;20425;-81
2023/06/02 12:05:27;;;;;;;3.00;1.80;;;18.40;99.90;;;;;;5020443;28;20460;-83
2023/06/02 12:07:54;;;;;;;3.03;1.60;;;18.40;99.90;;;;;;5016389;28;20480;-84
2023/06/02 12:10:30;;;;;;;3.37;1.30;;;18.50;99.90;;;;;;5002099;28;20478;-84
2023/06/02 12:12:57;;;;;;;5.33;1.90;;;18.70;99.90;;;;;;5002668;28;20496;-84
2023/06/02 12:15:32;;;;;;;3.07;1.80;;;18.80;99.90;;;;;;5002759;28;20561;-82
2023/06/02 12:18:00;;;;;;;7.63;5.40;;;18.80;99.90;;;;;;5006109;28;20468;-84
2023/06/02 12:20:36;;;;;;;5.53;1.67;;;18.50;99.90;;;;;;5003874;28;20867;-84
2023/06/02 12:23:02;;;;;;;1.80;1.70;;;18.50;99.90;;;;;;5003572;28;20432;-85
2023/06/02 12:25:31;;;;;;;3.53;1.70;;;18.60;99.90;;;;;;5003867;28;20540;-85
2023/06/02 12:28:10;;;;;;;3.43;1.67;;;18.60;99.90;;;;;;5004151;28;20558;-85
2023/06/02 12:30:37;;;;;;;1.63;1.20;;;18.70;99.90;;;;;;5003906;28;20420;-85
2023/06/02 12:33:09;;;;;;;1.63;1.20;;;18.80;99.90;;;;;;5003547;28;20492;-85
2023/06/02 12:35:36;;;;;;;1.60;1.40;;;18.80;99.90;;;;;;5003990;28;20480;-85
2023/06/02 12:38:04;;;;;;;4.53;1.60;;;18.70;99.90;;;;;;5002690;28;20456;-85
2023/06/02 12:40:32;;;;;;;1.97;1.40;;;18.70;99.90;;;;;;5004172;28;20496;-85
2023/06/02 12:42:59;;;;;;;2.57;1.30;;;18.70;99.90;;;;;;5004126;28;20524;-85
2023/06/02 12:45:26;;;;;;;2.77;1.40;;;18.60;99.90;;;;;;5009405;28;20464;-84
2023/06/02 12:47:53;;;;;;;2.20;1.60;;;18.60;99.90;;;;;;5018711;28;20509;-83
2023/06/02 12:50:20;;;;;;;4.07;1.20;;;18.80;99.90;;;;;;5018664;28;20456;-85
2023/06/02 12:52:47;;;;;;;1.40;1.00;;;18.70;99.90;;;;;;5004853;28;20816;-85
2023/06/02 12:55:14;;;;;;;2.20;1.13;;;18.80;99.90;;;;;;5004897;28;20483;-85
2023/06/02 12:57:44;;;;;;;2.93;1.50;;;18.90;99.90;;;;;;5002704;28;20441;-85
2023/06/02 13:00:12;;;;;;;8.40;1.27;;;19.00;99.90;;;;;;5004190;28;20492;-85
2023/06/02 13:02:41;;;;;;;2.83;1.93;;;18.90;99.90;;;;;;5002758;28;20975;-84
2023/06/02 13:05:08;;;;;;;1.60;1.20;;;18.90;99.90;;;;;;5002977;28;20477;-86
2023/06/02 13:07:36;;;;;;;2.80;1.20;;;18.80;99.90;;;;;;5008984;28;20541;-85
2023/06/02 13:10:07;;;;;;;1.23;1.03;;;;;;;;;;5009825;28;20448;-85
2023/06/02 13:12:34;;;;;;;6.40;1.77;;;18.90;99.90;;;;;;5011579;28;20434;-84
2023/06/02 13:15:06;;;;;;;4.90;4.30;;;19.00;99.90;;;;;;5013978;28;20496;-84
2023/06/02 13:17:33;;;;;;;5.07;1.70;;;19.00;99.90;;;;;;5004216;28;20461;-85
2023/06/02 13:20:00;;;;;;;8.53;2.40;;;19.00;99.90;;;;;;5004174;28;20485;-86
2023/06/02 13:22:28;;;;;;;2.93;1.43;;;19.20;99.90;;;;;;5004359;28;20460;-86
2023/06/02 13:24:55;;;;;;;4.70;1.47;;;19.10;99.90;;;;;;5004021;28;20504;-85
2023/06/02 13:27:23;;;;;;;2.10;1.13;;;19.30;99.90;;;;;;5003686;28;20495;-85
2023/06/02 13:29:50;;;;;;;2.17;1.30;;;19.30;99.90;;;;;;5005595;28;20488;-85
2023/06/02 13:32:18;;;;;;;6.57;5.80;;;19.10;99.90;;;;;;5005593;28;20819;-85
2023/06/02 13:34:54;;;;;;;5.67;1.70;;;18.90;99.90;;;;;;5009323;28;20548;-84
2023/06/02 13:37:21;;;;;;;3.03;1.33;;;18.90;99.90;;;;;;5006311;28;20464;-85
2023/06/02 13:39:51;;;;;;;3.67;1.50;;;18.80;99.90;;;;;;5003679;28;21066;-84
2023/06/02 13:42:18;;;;;;;1.63;1.30;;;18.80;99.90;;;;;;5002763;28;20433;-85
2023/06/02 13:44:45;;;;;;;12.50;1.67;;;18.90;99.90;;;;;;5002830;28;20461;-85
2023/06/02 13:47:12;;;;;;;2.90;0.90;;;19.00;99.90;;;;;;5003423;28;20513;-86
2023/06/02 13:49:40;;;;;;;3.13;1.00;;;19.00;99.90;;;;;;5004536;28;20524;-85
2023/06/02 13:52:08;;;;;;;1.93;1.20;;;19.10;99.90;;;;;;5004104;28;20483;-85
2023/06/02 13:54:35;;;;;;;6.50;4.77;;;18.90;99.90;;;;;;5003607;28;20477;-86
2023/06/02 13:57:02;;;;;;;5.03;2.00;;;19.20;99.90;;;;;;5002486;28;20537;-86
2023/06/02 13:59:30;;;;;;;5.13;2.50;;;19.30;99.90;;;;;;5002477;28;20557;-86
2023/06/02 14:01:57;;;;;;;4.30;1.93;;;19.20;99.90;;;;;;5002473;28;20500;-86
2023/06/02 14:04:25;;;;;;;10.90;1.70;;;18.70;99.90;;;;;;5011289;28;20480;-85
2023/06/02 14:06:54;;;;;;;2.03;1.30;;;19.00;99.90;;;;;;5002448;28;20521;-86
2023/06/02 14:09:21;;;;;;;5.23;3.60;;;19.10;99.90;;;;;;5003039;28;20612;-85
2023/06/02 14:11:49;;;;;;;2.27;1.33;;;19.10;99.90;;;;;;5003571;28;20453;-85
2023/06/02 14:14:16;;;;;;;4.00;1.40;;;19.80;99.90;;;;;;5014492;28;20436;-85
2023/06/02 14:16:43;;;;;;;5.50;1.20;;;19.00;99.90;;;;;;5018068;28;20461;-85
2023/06/02 14:19:10;;;;;;;5.50;1.87;;;19.10;99.90;;;;;;5003189;28;20553;-85
2023/06/02 14:21:37;;;;;;;5.23;1.50;;;19.00;99.90;;;;;;5005338;28;20441;-84
2023/06/02 14:24:06;;;;;;;3.00;1.70;;;19.20;99.90;;;;;;5003280;28;20579;-83
2023/06/02 14:26:32;;;;;;;1.97;1.30;;;19.00;99.90;;;;;;5004464;28;20528;-84
2023/06/02 14:28:59;;;;;;;2.07;1.33;;;19.20;99.90;;;;;;5003836;28;20524;-85
2023/06/02 14:31:26;;;;;;;2.53;1.50;;;19.10;99.90;;;;;;5001441;28;20487;-85
2023/06/02 14:33:53;;;;;;;16.20;2.37;;;19.00;99.90;;;;;;5003500;28;20480;-85
2023/06/02 14:36:20;;;;;;;3.33;2.50;;;19.10;99.90;;;;;;5002653;28;20481;-85
2023/06/02 14:38:47;;;;;;;4.13;1.10;;;19.20;99.90;;;;;;5003970;28;20455;-84
2023/06/02 14:41:15;;;;;;;9.23;1.47;;;19.00;99.90;;;;;;5002165;28;20480;-86
2023/06/02 14:43:42;;;;;;;7.13;1.67;;;19.00;99.90;;;;;;5006470;28;20456;-85
2023/06/02 14:46:09;;;;;;;5.10;1.77;;;19.40;99.90;;;;;;5005379;28;20523;-84
2023/06/02 14:48:37;;;;;;;2.83;1.20;;;19.00;99.90;;;;;;5001573;28;20455;-85
2023/06/02 14:51:04;;;;;;;2.10;0.90;;;18.90;99.90;;;;;;5002635;28;20472;-85
2023/06/02 14:53:32;;;;;;;2.43;1.33;;;18.90;99.90;;;;;;5004004;28;20453;-85
2023/06/02 14:55:58;;;;;;;4.27;1.30;;;18.50;99.90;;;;;;5004309;28;20451;-87
2023/06/02 14:58:27;;;;;;;2.20;1.37;;;18.80;99.90;;;;;;5003120;28;20457;-86
2023/06/02 15:00:54;;;;;;;2.67;1.43;;;18.90;99.90;;;;;;5002123;28;20548;-87
2023/06/02 15:03:21;;;;;;;5.60;1.50;;;18.90;99.90;;;;;;5002285;28;20508;-86
2023/06/02 15:05:51;;;;;;;1.40;1.10;;;19.00;99.90;;;;;;5006092;28;20496;-87
2023/06/02 15:08:18;;;;;;;13.53;1.97;;;19.00;99.90;;;;;;5004408;28;20410;-86
2023/06/02 15:10:45;;;;;;;2.27;1.07;;;18.90;99.90;;;;;;5005116;28;20528;-86
2023/06/02 15:13:12;;;;;;;1.87;0.80;;;18.90;99.90;;;;;;5006912;28;20531;-87
2023/06/02 15:15:40;;;;;;;8.40;1.57;;;18.90;99.90;;;;;;5013958;28;20465;-86
2023/06/02 15:18:07;;;;;;;2.07;1.10;;;18.70;99.90;;;;;;5014475;28;20456;-86
2023/06/02 15:20:34;;;;;;;2.37;1.03;;;18.70;99.90;;;;;;5007250;28;20462;-86
2023/06/02 15:23:01;;;;;;;8.80;1.13;;;18.70;99.90;;;;;;5005470;28;20513;-87
2023/06/02 15:25:28;;;;;;;1.10;1.00;;;18.70;99.90;;;;;;4999586;28;20512;-87